createdAt,value
2018-12-04T00:02:03.924Z,99824.34
2018-12-04T00:04:32.271Z,99822.20
2018-12-04T00:07:00.596Z,99819.83
2018-12-04T00:09:28.950Z,99816.25
2018-12-04T00:11:57.277Z,99820.70
2018-12-04T00:14:25.723Z,99826.95
2018-12-04T00:16:54.067Z,99827.67
2018-12-04T00:19:22.621Z,99829.39
2018-12-04T00:21:50.731Z,99828.11
2018-12-04T00:24:19.081Z,99824.83
2018-12-04T00:26:47.443Z,99829.55
2018-12-04T00:29:15.776Z,99827.13
2018-12-04T00:31:44.094Z,99831.11
2018-12-04T00:34:12.437Z,99832.09
2018-12-04T00:36:40.773Z,99831.75
2018-12-04T00:39:09.137Z,99837.67
2018-12-04T00:41:37.437Z,99836.73
2018-12-04T00:44:05.769Z,99832.17
2018-12-04T00:46:34.106Z,99834.13
2018-12-04T00:49:02.444Z,99836.89
2018-12-04T00:51:30.793Z,99835.55
2018-12-04T00:53:59.130Z,99834.30
2018-12-04T00:56:27.474Z,99835.23
2018-12-04T00:58:55.804Z,99836.46
2018-12-04T01:01:24.126Z,99838.03
2018-12-04T01:03:52.453Z,99853.20
2018-12-04T01:06:20.781Z,99847.50
2018-12-04T01:08:49.358Z,99844.03
2018-12-04T01:11:17.470Z,99844.05
2018-12-04T01:13:45.804Z,99840.41
2018-12-04T01:16:14.126Z,99838.80
2018-12-04T01:18:42.463Z,99836.13
2018-12-04T01:21:11.162Z,99839.89
2018-12-04T01:23:39.494Z,99846.74
2018-12-04T01:26:07.831Z,99848.84
2018-12-04T01:28:36.214Z,99851.69
2018-12-04T01:31:04.544Z,99856.28
2018-12-04T01:33:32.936Z,99847.55
2018-12-04T01:36:01.232Z,99849.61
2018-12-04T01:38:29.569Z,99849.56
2018-12-04T01:40:57.894Z,99852.38
2018-12-04T01:43:26.232Z,99859.42
2018-12-04T01:45:54.565Z,99861.33
2018-12-04T01:48:22.896Z,99862.73
2018-12-04T01:50:51.229Z,99855.95
2018-12-04T01:53:19.575Z,99856.06
2018-12-04T01:55:47.892Z,99856.29
2018-12-04T01:58:16.234Z,99856.94
2018-12-04T02:00:44.563Z,99863.17
2018-12-04T02:03:12.902Z,99861.56
2018-12-04T02:05:41.243Z,99855.25
2018-12-04T02:08:09.566Z,99859.59
2018-12-04T02:10:38.807Z,99860.80
2018-12-04T02:13:07.126Z,99856.78
2018-12-04T02:15:35.455Z,99856.58
2018-12-04T02:18:03.801Z,99858.95
2018-12-04T02:20:32.147Z,99853.61
2018-12-04T02:23:00.479Z,99850.72
2018-12-04T02:25:28.810Z,99851.16
2018-12-04T02:27:57.134Z,99851.16
2018-12-04T02:30:25.501Z,99854.59
2018-12-04T02:32:53.837Z,99856.55
2018-12-04T02:35:22.170Z,99856.70
2018-12-04T02:37:50.499Z,99857.84
2018-12-04T02:40:18.826Z,99860.09
2018-12-04T02:42:47.160Z,99864.90
2018-12-04T02:45:15.503Z,99866.27
2018-12-04T02:47:43.816Z,99868.27
2018-12-04T02:50:12.165Z,99865.50
2018-12-04T02:52:40.503Z,99864.77
2018-12-04T02:55:08.837Z,99865.41
2018-12-04T02:57:37.167Z,99864.73
2018-12-04T03:00:05.496Z,99863.09
2018-12-04T03:02:33.832Z,99864.95
2018-12-04T03:05:02.161Z,99858.43
2018-12-04T03:07:30.499Z,99863.89
2018-12-04T03:09:58.825Z,99868.02
2018-12-04T03:12:27.162Z,99867.34
2018-12-04T03:14:55.521Z,99866.03
2018-12-04T03:17:23.848Z,99866.59
2018-12-04T03:19:52.179Z,99864.97
2018-12-04T03:22:20.504Z,99865.70
2018-12-04T03:24:48.832Z,99862.30
2018-12-04T03:27:17.169Z,99861.08
2018-12-04T03:29:45.507Z,99859.09
2018-12-04T03:32:13.875Z,99869.19
2018-12-04T03:34:42.213Z,99869.36
2018-12-04T03:37:10.559Z,99872.13
2018-12-04T03:39:38.887Z,99872.77
2018-12-04T03:42:07.225Z,99872.20
2018-12-04T03:44:35.559Z,99875.09
2018-12-04T03:47:03.895Z,99874.46
2018-12-04T03:49:32.219Z,99878.66
2018-12-04T03:52:00.549Z,99874.09
2018-12-04T03:54:28.883Z,99867.16
2018-12-04T03:56:57.232Z,99868.73
2018-12-04T03:59:25.543Z,99869.95
2018-12-04T04:01:53.876Z,99866.88
2018-12-04T04:04:22.192Z,99863.27
2018-12-04T04:06:50.535Z,99862.07
2018-12-04T04:09:18.870Z,99855.41
2018-12-04T04:11:47.200Z,99857.77
2018-12-04T04:14:15.529Z,99852.46
2018-12-04T04:16:43.859Z,99850.05
2018-12-04T04:19:12.184Z,99846.87
2018-12-04T04:21:40.522Z,99840.05
2018-12-04T04:24:08.853Z,99838.75
2018-12-04T04:26:37.178Z,99834.86
2018-12-04T04:29:05.504Z,99830.97
2018-12-04T04:31:33.833Z,99829.00
2018-12-04T04:34:02.209Z,99837.03
2018-12-04T04:36:30.547Z,99835.48
2018-12-04T04:38:58.863Z,99839.94
2018-12-04T04:41:27.192Z,99847.48
2018-12-04T04:43:55.522Z,99846.91
2018-12-04T04:46:23.839Z,99839.31
2018-12-04T04:48:52.170Z,99835.99
2018-12-04T04:51:20.490Z,99837.42
2018-12-04T04:53:48.821Z,99836.06
2018-12-04T04:56:17.130Z,99834.41
2018-12-04T04:58:46.007Z,99828.48
2018-12-04T05:01:14.094Z,99828.73
2018-12-04T05:03:42.424Z,99828.13
2018-12-04T05:06:10.775Z,99831.62
2018-12-04T05:08:39.107Z,99838.84
2018-12-04T05:11:07.447Z,99838.02
2018-12-04T05:13:35.783Z,99842.49
2018-12-04T05:16:04.120Z,99838.25
2018-12-04T05:18:32.455Z,99844.48
2018-12-04T05:21:00.869Z,99848.89
2018-12-04T05:23:29.200Z,99851.05
2018-12-04T05:25:57.529Z,99851.48
2018-12-04T05:28:25.862Z,99856.70
2018-12-04T05:30:54.178Z,99859.39
2018-12-04T05:33:22.503Z,99860.41
2018-12-04T05:35:50.858Z,99866.02
2018-12-04T05:38:19.192Z,99865.01
2018-12-04T05:40:47.542Z,99860.67
2018-12-04T05:43:15.873Z,99858.45
2018-12-04T05:45:44.216Z,99867.67
2018-12-04T05:48:12.565Z,99863.95
2018-12-04T05:50:40.888Z,99863.83
2018-12-04T05:53:21.024Z,99864.87
2018-12-04T05:55:49.362Z,99869.13
2018-12-04T05:58:17.704Z,99873.70
2018-12-04T06:00:46.019Z,99878.73
2018-12-04T06:03:14.336Z,99878.04
2018-12-04T06:05:42.678Z,99883.34
2018-12-04T06:08:11.001Z,99895.82
2018-12-04T06:10:39.349Z,99898.84
2018-12-04T06:13:07.692Z,99898.42
2018-12-04T06:15:36.026Z,99913.88
2018-12-04T06:18:04.376Z,99927.45
2018-12-04T06:20:33.634Z,99931.45
2018-12-04T06:23:01.996Z,99938.73
2018-12-04T06:25:30.365Z,99940.54
2018-12-04T06:27:58.981Z,99951.45
2018-12-04T06:30:27.319Z,99952.97
2018-12-04T06:32:55.650Z,99965.95
2018-12-04T06:35:23.974Z,99966.50
2018-12-04T06:37:52.321Z,99971.14
2018-12-04T06:40:20.659Z,99976.80
2018-12-04T06:42:48.988Z,99987.66
2018-12-04T06:45:17.306Z,99993.19
2018-12-04T06:47:45.637Z,100002.77
2018-12-04T06:50:13.972Z,99998.27
2018-12-04T06:52:42.311Z,99995.55
2018-12-04T06:55:10.649Z,100000.49
2018-12-04T06:57:38.999Z,100005.02
2018-12-04T07:00:07.336Z,100004.55
2018-12-04T07:02:35.668Z,100008.81
2018-12-04T07:05:04.028Z,100021.81
2018-12-04T07:07:32.362Z,100029.77
2018-12-04T07:10:00.717Z,100028.25
2018-12-04T07:12:29.041Z,100034.75
2018-12-04T07:14:57.814Z,100040.95
2018-12-04T07:17:26.161Z,100049.39
2018-12-04T07:19:54.501Z,100060.22
2018-12-04T07:22:22.887Z,100072.36
2018-12-04T07:24:51.636Z,100071.86
2018-12-04T07:27:19.974Z,100090.38
2018-12-04T07:29:48.309Z,100094.29
2018-12-04T07:32:17.167Z,100114.08
2018-12-04T07:34:45.291Z,100115.51
2018-12-04T07:37:13.612Z,100113.36
2018-12-04T07:39:41.969Z,100124.02
2018-12-04T07:42:10.313Z,100130.29
2018-12-04T07:44:38.638Z,100127.11
2018-12-04T07:47:06.980Z,100130.12
2018-12-04T07:49:35.308Z,100133.82
2018-12-04T07:52:03.640Z,100143.38
2018-12-04T07:54:31.988Z,100150.83
2018-12-04T07:57:00.295Z,100142.64
2018-12-04T07:59:28.620Z,100159.51
2018-12-04T08:01:56.936Z,100159.78
2018-12-04T08:04:25.275Z,100158.14
2018-12-04T08:06:53.592Z,100174.43
2018-12-04T08:09:21.914Z,100168.53
2018-12-04T08:11:50.276Z,100175.48
2018-12-04T08:14:18.581Z,100175.66
2018-12-04T08:16:46.898Z,100180.56
2018-12-04T08:19:15.209Z,100189.41
2018-12-04T08:21:43.533Z,100188.87
2018-12-04T08:24:11.847Z,100190.25
2018-12-04T08:26:40.160Z,100192.44
2018-12-04T08:29:08.499Z,100190.31
2018-12-04T08:31:36.847Z,100198.06
2018-12-04T08:34:05.167Z,100197.34
2018-12-04T08:36:33.485Z,100203.00
2018-12-04T08:39:01.807Z,100199.38
2018-12-04T08:41:30.306Z,100207.33
2018-12-04T08:43:58.633Z,100214.30
2018-12-04T08:46:27.543Z,100215.52
2018-12-04T08:48:55.878Z,100231.89
2018-12-04T08:51:24.195Z,100232.11
2018-12-04T08:53:52.510Z,100232.08
2018-12-04T08:56:20.821Z,100245.25
2018-12-04T08:58:49.177Z,100257.35
2018-12-04T09:01:17.492Z,100262.70
2018-12-04T09:03:45.818Z,100261.70
2018-12-04T09:06:14.139Z,100267.23
2018-12-04T09:08:42.479Z,100268.72
2018-12-04T09:11:10.780Z,100278.28
2018-12-04T09:13:39.108Z,100276.62
2018-12-04T09:16:07.433Z,100280.37
2018-12-04T09:18:35.745Z,100283.61
2018-12-04T09:21:04.114Z,100283.59
2018-12-04T09:23:32.426Z,100280.73
2018-12-04T09:26:00.733Z,100297.55
2018-12-04T09:28:29.041Z,100294.41
2018-12-04T09:30:57.366Z,100305.95
2018-12-04T09:33:25.686Z,100295.53
2018-12-04T09:35:54.012Z,100308.26
2018-12-04T09:38:22.339Z,100305.88
2018-12-04T09:40:50.662Z,100307.44
2018-12-04T09:43:19.095Z,100307.58
2018-12-04T09:45:47.411Z,100308.08
2018-12-04T09:48:15.737Z,100315.59
2018-12-04T09:50:44.064Z,100318.37
2018-12-04T09:53:12.390Z,100320.50
2018-12-04T09:55:40.705Z,100311.41
2018-12-04T09:58:09.038Z,100325.73
2018-12-04T10:00:37.360Z,100336.08
2018-12-04T10:03:05.686Z,100328.31
2018-12-04T10:05:34.004Z,100357.50
2018-12-04T10:08:02.329Z,100350.25
2018-12-04T10:10:30.651Z,100338.33
2018-12-04T10:12:58.970Z,100348.68
2018-12-04T10:15:27.308Z,100361.14
2018-12-04T10:17:55.637Z,100349.97
2018-12-04T10:20:23.957Z,100361.73
2018-12-04T10:22:52.515Z,100368.63
2018-12-04T10:25:20.621Z,100364.48
2018-12-04T10:27:48.953Z,100360.66
2018-12-04T10:30:17.299Z,100357.92
2018-12-04T10:32:45.878Z,100366.94
2018-12-04T10:35:13.980Z,100364.62
2018-12-04T10:37:42.304Z,100364.81
2018-12-04T10:40:10.640Z,100364.65
2018-12-04T10:42:38.990Z,100364.56
2018-12-04T10:45:07.349Z,100379.09
2018-12-04T10:47:35.676Z,100379.83
2018-12-04T10:50:04.009Z,100387.83
2018-12-04T10:52:32.356Z,100404.31
2018-12-04T10:55:00.664Z,100406.20
2018-12-04T10:57:29.236Z,100416.80
2018-12-04T10:59:57.355Z,100418.68
2018-12-04T11:02:25.688Z,100417.53
2018-12-04T11:04:54.023Z,100422.47
2018-12-04T11:07:22.346Z,100434.13
2018-12-04T11:09:50.690Z,100438.48
2018-12-04T11:12:19.341Z,100431.06
2018-12-04T11:14:47.659Z,100432.63
2018-12-04T11:17:15.996Z,100430.42
2018-12-04T11:19:44.317Z,100426.84
2018-12-04T11:22:12.869Z,100439.12
2018-12-04T11:24:41.204Z,100439.05
2018-12-04T11:27:09.544Z,100435.04
2018-12-04T11:29:37.897Z,100437.73
2018-12-04T11:32:06.223Z,100458.28
2018-12-04T11:34:34.574Z,100459.66
2018-12-04T11:37:02.906Z,100462.23
2018-12-04T11:39:31.230Z,100476.23
2018-12-04T11:41:59.546Z,100484.86
2018-12-04T11:44:27.876Z,100492.45
2018-12-04T11:46:56.286Z,100480.56
2018-12-04T11:49:24.645Z,100499.75
2018-12-04T11:51:52.959Z,100493.38
2018-12-04T11:54:21.300Z,100500.92
2018-12-04T11:56:50.975Z,100500.95
2018-12-04T11:59:17.960Z,100500.94
2018-12-04T12:01:46.282Z,100504.38
2018-12-04T12:04:14.630Z,100506.88
2018-12-04T12:06:42.955Z,100509.30
2018-12-04T12:09:11.386Z,100513.20
2018-12-04T12:11:39.721Z,100518.80
2018-12-04T12:14:08.044Z,100514.28
2018-12-04T12:16:36.382Z,100516.72
2018-12-04T12:19:04.716Z,100526.83
2018-12-04T12:21:33.056Z,100534.36
2018-12-04T12:24:01.375Z,100537.09
2018-12-04T12:26:29.708Z,100529.36
2018-12-04T12:28:58.052Z,100544.89
2018-12-04T12:31:26.386Z,100556.84
2018-12-04T12:33:54.704Z,100559.97
2018-12-04T12:36:23.366Z,100554.56
2018-12-04T12:38:51.689Z,100557.57
2018-12-04T12:41:20.021Z,100566.48
2018-12-04T12:43:48.344Z,100574.19
2018-12-04T12:46:16.680Z,100576.88
2018-12-04T12:48:45.597Z,100592.98
2018-12-04T12:51:13.927Z,100582.28
2018-12-04T12:53:42.259Z,100585.01
2018-12-04T12:56:11.507Z,100589.45
2018-12-04T12:58:39.834Z,100593.52
2018-12-04T13:01:08.163Z,100598.16
2018-12-04T13:03:36.480Z,100598.85
2018-12-04T13:06:04.810Z,100607.81
2018-12-04T13:08:33.130Z,100602.11
2018-12-04T13:11:01.451Z,100606.55
2018-12-04T13:13:29.811Z,100605.47
2018-12-04T13:15:58.170Z,100611.09
2018-12-04T13:18:26.502Z,100603.41
2018-12-04T13:20:54.867Z,100609.06
2018-12-04T13:23:23.197Z,100604.59
2018-12-04T13:25:51.527Z,100656.29
2018-12-04T13:28:19.852Z,100622.28
2018-12-04T13:30:48.236Z,100633.71
2018-12-04T13:33:16.567Z,100643.70
2018-12-04T13:35:44.906Z,100627.74
2018-12-04T13:38:13.256Z,100656.73
2018-12-04T13:40:43.286Z,100650.78
2018-12-04T13:43:12.857Z,100646.31
2018-12-04T13:45:42.132Z,100628.62
2018-12-04T13:48:10.616Z,100669.75
2018-12-04T13:50:39.019Z,100649.63
2018-12-04T13:53:07.327Z,100643.17
2018-12-04T13:55:35.881Z,100653.59
2018-12-04T13:58:03.969Z,100666.47
2018-12-04T14:00:32.317Z,100657.39
2018-12-04T14:03:00.687Z,100679.02
2018-12-04T14:05:29.038Z,100663.66
2018-12-04T14:07:57.498Z,100692.26
2018-12-04T14:10:26.344Z,100672.36
2018-12-04T14:12:54.728Z,100696.02
2018-12-04T14:15:22.877Z,100687.50
2018-12-04T14:17:51.264Z,100683.66
2018-12-04T14:20:19.584Z,100711.87
2018-12-04T14:22:47.924Z,100701.01
2018-12-04T14:25:16.264Z,100707.89
2018-12-04T14:27:48.951Z,100720.19
2018-12-04T14:30:12.986Z,100716.86
2018-12-04T14:32:41.325Z,100726.65
2018-12-04T14:35:09.770Z,100731.70
2018-12-04T14:37:38.358Z,100740.47
2018-12-04T14:40:06.511Z,100736.39
2018-12-04T14:42:34.808Z,100756.86
2018-12-04T14:45:03.237Z,100757.41
2018-12-04T14:47:31.548Z,100756.51
2018-12-04T14:49:59.887Z,100756.84
2018-12-04T14:52:28.294Z,100758.80
2018-12-04T14:54:56.614Z,100761.91
2018-12-04T14:57:24.963Z,100748.94
2018-12-04T14:59:53.353Z,100755.80
2018-12-04T15:02:21.718Z,100762.73
2018-12-04T15:04:50.044Z,100772.22
2018-12-04T15:07:18.406Z,100781.92
2018-12-04T15:09:46.714Z,100785.36
2018-12-04T15:12:15.046Z,100789.75
2018-12-04T15:14:43.413Z,100847.91
2018-12-04T15:17:11.790Z,100813.02
2018-12-04T15:19:40.094Z,100803.08
2018-12-04T15:22:08.473Z,100804.99
2018-12-04T15:24:36.787Z,100797.47
2018-12-04T15:27:05.148Z,100807.52
2018-12-04T15:29:34.126Z,100800.22
2018-12-04T15:32:02.481Z,100819.75
2018-12-04T15:34:30.796Z,100808.70
2018-12-04T15:36:59.412Z,100831.20
2018-12-04T15:39:27.528Z,100820.27
2018-12-04T15:41:56.590Z,100817.55
2018-12-04T15:44:24.905Z,100824.23
2018-12-04T15:46:53.254Z,100832.58
2018-12-04T15:49:21.564Z,100839.05
2018-12-04T15:51:49.902Z,100839.67
2018-12-04T15:54:18.661Z,100862.75
2018-12-04T15:56:46.661Z,100861.92
2018-12-04T15:59:15.010Z,100871.70
2018-12-04T16:01:43.354Z,100861.75
2018-12-04T16:04:11.682Z,100883.78
2018-12-04T16:06:40.095Z,100880.23
2018-12-04T16:09:08.453Z,100870.84
2018-12-04T16:11:37.102Z,100881.25
2018-12-04T16:14:06.605Z,100876.45
2018-12-04T16:16:33.911Z,100882.75
2018-12-04T16:19:02.822Z,100901.08
2018-12-04T16:21:31.043Z,100885.43
2018-12-04T16:23:59.391Z,100885.62
2018-12-04T16:26:29.695Z,100880.20
2018-12-04T16:28:58.036Z,100892.28
2018-12-04T16:31:26.916Z,100898.05
2018-12-04T16:33:55.313Z,100896.20
2018-12-04T16:36:23.789Z,100913.64
2018-12-04T16:38:52.299Z,100901.91
2018-12-04T16:41:20.650Z,100902.83
2018-12-04T16:43:49.029Z,100909.58
2018-12-04T16:46:18.108Z,100898.58
2018-12-04T16:48:46.511Z,100906.33
2018-12-04T16:51:15.682Z,100918.50
2018-12-04T16:53:44.374Z,100915.03
2018-12-04T16:56:12.822Z,100917.72
2018-12-04T16:58:41.234Z,100943.67
2018-12-04T17:01:09.880Z,100933.20
2018-12-04T17:03:38.712Z,100936.83
2018-12-04T17:06:07.214Z,100938.09
2018-12-04T17:08:35.642Z,100943.17
2018-12-04T17:11:04.399Z,100948.73
2018-12-04T17:13:32.841Z,100942.92
2018-12-04T17:16:24.445Z,100957.39
2018-12-04T17:18:47.676Z,100970.84
2018-12-04T17:21:16.998Z,100955.26
2018-12-04T17:23:56.211Z,100965.30
2018-12-04T17:26:17.721Z,100961.31
2018-12-04T17:28:46.173Z,100969.69
2018-12-04T17:31:26.095Z,100977.15
2018-12-04T17:33:55.055Z,100986.02
2018-12-04T17:36:22.888Z,100992.91
2018-12-04T17:38:51.631Z,100989.37
2018-12-04T17:41:20.056Z,100985.19
2018-12-04T17:43:48.431Z,100987.14
2018-12-04T17:46:16.738Z,100987.82
2018-12-04T17:51:33.422Z,101001.95
2018-12-04T17:54:01.735Z,101010.98
2018-12-04T17:56:30.990Z,100997.16
2018-12-04T17:58:59.326Z,101011.77
2018-12-04T18:01:27.898Z,101012.30
2018-12-04T18:03:56.253Z,101017.16
2018-12-04T18:06:24.600Z,101026.11
2018-12-04T18:08:53.249Z,101028.92
2018-12-04T18:11:21.979Z,101038.33
2018-12-04T18:13:50.360Z,101040.31
2018-12-04T18:16:18.765Z,101047.16
2018-12-04T18:18:47.124Z,101045.62
2018-12-04T18:21:15.477Z,101043.58
2018-12-04T18:23:44.071Z,101056.78
2018-12-04T18:26:12.423Z,101052.05
2018-12-04T18:28:40.851Z,101041.98
2018-12-04T18:31:09.196Z,101054.98
2018-12-04T18:33:37.534Z,101057.66
2018-12-04T18:36:05.878Z,101057.59
2018-12-04T18:38:34.457Z,101057.37
2018-12-04T18:41:02.914Z,101064.91
2018-12-04T18:43:31.236Z,101065.96
2018-12-04T18:45:59.882Z,101068.88
2018-12-04T18:48:28.229Z,101074.36
2018-12-04T18:50:56.574Z,101084.50
2018-12-04T18:53:25.152Z,101099.45
2018-12-04T18:55:53.521Z,101105.06
2018-12-04T18:58:22.098Z,101101.64
2018-12-04T19:00:50.220Z,101092.28
2018-12-04T19:03:18.586Z,101085.36
2018-12-04T19:05:46.937Z,101095.11
2018-12-04T19:08:15.296Z,101102.42
2018-12-04T19:10:43.642Z,101103.78
2018-12-04T19:13:11.987Z,101110.53
2018-12-04T19:15:40.330Z,101115.30
2018-12-04T19:18:08.714Z,101112.05
2018-12-04T19:26:07.021Z,101120.50
2018-12-04T19:28:35.307Z,101136.00
2018-12-04T19:31:03.698Z,101141.47
2018-12-04T19:33:32.795Z,101128.12
2018-12-04T19:36:01.123Z,101143.45
2018-12-04T19:38:29.509Z,101124.35
2018-12-04T19:40:57.808Z,101139.56
2018-12-04T19:43:26.440Z,101138.66
2018-12-04T19:45:54.552Z,101151.03
2018-12-04T19:48:22.870Z,101153.51
2018-12-04T19:50:51.233Z,101170.54
2018-12-04T19:53:19.667Z,101171.47
2018-12-04T19:55:48.076Z,101170.73
2018-12-04T19:58:16.651Z,101174.02
2018-12-04T20:00:45.088Z,101184.89
2018-12-04T20:03:13.456Z,101189.48
2018-12-04T20:05:41.884Z,101184.50
2018-12-04T20:08:10.664Z,101203.45
2018-12-04T20:10:39.252Z,101196.73
2018-12-04T20:13:07.778Z,101192.89
2018-12-04T20:15:36.549Z,101203.67
2018-12-04T20:18:05.316Z,101207.20
2018-12-04T20:20:34.530Z,101212.71
2018-12-04T20:23:02.909Z,101216.81
2018-12-04T20:25:31.470Z,101214.73
2018-12-04T20:28:00.002Z,101224.75
2018-12-04T20:30:28.594Z,101224.23
2018-12-04T20:32:59.859Z,101232.77
2018-12-04T20:35:25.390Z,101234.36
2018-12-04T20:37:53.811Z,101238.44
2018-12-04T20:40:22.386Z,101237.07
2018-12-04T20:42:51.043Z,101235.49
2018-12-04T20:45:19.481Z,101236.27
2018-12-04T20:47:47.736Z,101241.88
2018-12-04T20:50:16.161Z,101254.89
2018-12-04T20:52:44.989Z,101255.17
2018-12-04T20:55:13.136Z,101263.47
2018-12-04T20:57:41.482Z,101272.97
2018-12-04T21:00:09.843Z,101278.91
2018-12-04T21:02:38.324Z,101274.36
2018-12-04T21:05:07.324Z,101281.77
2018-12-04T21:07:35.733Z,101287.70
2018-12-04T21:10:04.176Z,101288.13
2018-12-04T21:12:32.613Z,101292.73
2018-12-04T21:15:00.948Z,101293.61
2018-12-04T21:17:29.534Z,101294.44
2018-12-04T21:19:58.114Z,101305.90
2018-12-04T21:22:26.449Z,101307.98
2018-12-04T21:24:54.987Z,101316.59
2018-12-04T21:27:28.980Z,101310.89
2018-12-04T21:30:02.853Z,101316.98
2018-12-04T21:32:36.781Z,101317.30
2018-12-04T21:35:10.800Z,101314.25
2018-12-04T21:37:44.800Z,101324.69
2018-12-04T21:40:19.824Z,101335.25
2018-12-04T21:42:52.744Z,101336.23
2018-12-04T21:45:26.548Z,101337.34
2018-12-04T21:47:54.903Z,101340.86
2018-12-04T21:50:23.360Z,101344.74
2018-12-04T21:52:52.323Z,101340.74
2018-12-04T21:55:20.672Z,101344.83
2018-12-04T21:57:49.118Z,101344.92
2018-12-04T22:00:17.769Z,101344.50
2018-12-04T22:02:46.122Z,101349.11
2018-12-04T22:05:14.484Z,101353.39
2018-12-04T22:07:42.897Z,101357.75
2018-12-04T22:10:11.236Z,101358.81
2018-12-04T22:12:39.557Z,101360.02
2018-12-04T22:15:07.884Z,101368.18
2018-12-04T22:17:36.201Z,101366.79
2018-12-04T22:20:05.065Z,101365.31
2018-12-04T22:22:33.498Z,101384.05
2018-12-04T22:25:01.796Z,101389.03
2018-12-04T22:27:30.195Z,101390.09
2018-12-04T22:29:58.523Z,101420.76
2018-12-04T22:32:26.878Z,101406.69
2018-12-04T22:34:55.206Z,101404.86
2018-12-04T22:37:23.550Z,101391.73
2018-12-04T22:39:51.878Z,101390.80
2018-12-04T22:42:20.211Z,101392.90
2018-12-04T22:44:48.533Z,101399.21
2018-12-04T22:47:16.864Z,101409.39
2018-12-04T22:49:45.218Z,101407.25
2018-12-04T22:52:13.547Z,101408.08
2018-12-04T22:54:41.883Z,101408.11
2018-12-04T22:57:10.412Z,101410.16
2018-12-04T22:59:38.743Z,101413.05
2018-12-04T23:02:07.087Z,101416.89
2018-12-04T23:04:35.501Z,101421.03
2018-12-04T23:07:03.792Z,101409.11
2018-12-04T23:09:32.298Z,101410.27
2018-12-04T23:12:00.420Z,101420.91
2018-12-04T23:14:28.750Z,101422.06
2018-12-04T23:16:57.072Z,101421.80
2018-12-04T23:19:25.408Z,101427.63
2018-12-04T23:21:54.091Z,101432.58
2018-12-04T23:24:22.194Z,101439.63
2018-12-04T23:26:50.655Z,101440.41
2018-12-04T23:29:18.972Z,101441.41
2018-12-04T23:31:47.304Z,101447.35
2018-12-04T23:34:15.633Z,101447.98
2018-12-04T23:36:43.964Z,101456.12
2018-12-04T23:39:12.549Z,101458.22
2018-12-04T23:41:40.889Z,101472.81
2018-12-04T23:44:09.209Z,101480.02
2018-12-04T23:46:37.535Z,101481.47
2018-12-04T23:49:05.856Z,101485.32
2018-12-04T23:51:34.200Z,101492.55
2018-12-04T23:54:02.644Z,101486.98
2018-12-04T23:56:30.991Z,101493.92
2018-12-04T23:58:59.330Z,101498.23
